createdAt,value
2019-04-26T00:00:15.894Z,101756.55
2019-04-26T00:02:59.934Z,101754.36
2019-04-26T00:05:34.806Z,101750.82
2019-04-26T00:08:05.195Z,101750.48
2019-04-26T00:10:39.619Z,101743.70
2019-04-26T00:13:16.350Z,101746.36
2019-04-26T00:16:06.384Z,101743.66
2019-04-26T00:18:39.538Z,101743.62
2019-04-26T00:21:11.739Z,101746.54
2019-04-26T00:23:44.942Z,101740.30
2019-04-26T00:26:17.666Z,101739.75
2019-04-26T00:28:49.587Z,101743.51
2019-04-26T00:31:21.971Z,101741.02
2019-04-26T00:33:53.926Z,101741.81
2019-04-26T00:36:25.690Z,101745.83
2019-04-26T00:38:57.747Z,101745.53
2019-04-26T00:41:29.853Z,101741.98
2019-04-26T00:44:02.398Z,101738.41
2019-04-26T00:46:36.903Z,101738.41
2019-04-26T00:49:10.795Z,101740.27
2019-04-26T00:51:42.698Z,101739.70
2019-04-26T00:54:15.500Z,101736.97
2019-04-26T00:56:47.678Z,101729.64
2019-04-26T00:59:20.538Z,101724.19
2019-04-26T01:01:57.618Z,101725.24
2019-04-26T01:04:32.805Z,101724.91
2019-04-26T01:07:02.781Z,101727.05
2019-04-26T01:09:34.775Z,101722.63
2019-04-26T01:12:06.813Z,101722.63
2019-04-26T01:14:38.776Z,101719.58
2019-04-26T01:17:11.662Z,101714.95
2019-04-26T01:19:45.351Z,101713.80
2019-04-26T01:22:19.880Z,101718.05
2019-04-26T01:24:54.316Z,101717.20
2019-04-26T01:27:27.884Z,101715.77
2019-04-26T01:30:02.951Z,101716.55
2019-04-26T01:32:37.477Z,101713.86
2019-04-26T01:35:09.326Z,101716.27
2019-04-26T01:37:44.908Z,101716.00
2019-04-26T01:40:18.193Z,101716.22
2019-04-26T01:43:00.788Z,101713.72
2019-04-26T01:45:37.293Z,101718.11
2019-04-26T01:48:33.287Z,101715.05
2019-04-26T01:51:06.402Z,101722.05
2019-04-26T01:53:38.444Z,101714.76
2019-04-26T01:56:10.508Z,101711.47
2019-04-26T01:58:43.102Z,101708.78
2019-04-26T02:01:25.622Z,101710.67
2019-04-26T02:03:58.761Z,101711.21
2019-04-26T02:06:33.307Z,101713.86
2019-04-26T02:09:05.588Z,101713.86
2019-04-26T02:11:38.106Z,101711.97
2019-04-26T02:14:09.850Z,101718.41
2019-04-26T02:16:42.308Z,101711.63
2019-04-26T02:19:14.587Z,101709.22
2019-04-26T02:22:00.481Z,101712.71
2019-04-26T02:24:36.439Z,101709.36
2019-04-26T02:27:09.617Z,101709.36
2019-04-26T02:29:41.511Z,101713.11
2019-04-26T02:32:13.773Z,101710.92
2019-04-26T02:34:45.715Z,101707.67
2019-04-26T02:37:17.782Z,101709.02
2019-04-26T02:39:50.294Z,101704.12
2019-04-26T02:42:30.181Z,101714.97
2019-04-26T02:45:21.949Z,101707.96
2019-04-26T02:48:14.523Z,101708.23
2019-04-26T02:50:59.488Z,101708.23
2019-04-26T02:53:35.328Z,101708.33
2019-04-26T02:56:30.325Z,101722.09
2019-04-26T02:59:05.068Z,101722.09
2019-04-26T03:01:38.708Z,101721.60
2019-04-26T03:04:10.512Z,101724.59
2019-04-26T03:07:01.856Z,101728.14
2019-04-26T03:09:19.690Z,101724.95
2019-04-26T03:12:06.175Z,101722.05
2019-04-26T03:14:42.098Z,101726.73
2019-04-26T03:17:19.756Z,101721.39
2019-04-26T03:20:05.445Z,101726.80
2019-04-26T03:22:55.400Z,101725.00
2019-04-26T03:25:32.681Z,101727.74
2019-04-26T03:28:07.112Z,101724.03
2019-04-26T03:30:48.698Z,101722.78
2019-04-26T03:33:42.081Z,101721.47
2019-04-26T03:36:21.937Z,101718.78
2019-04-26T03:39:04.443Z,101716.17
2019-04-26T03:41:44.472Z,101720.56
2019-04-26T03:44:31.249Z,101727.61
2019-04-26T03:47:05.922Z,101718.75
2019-04-26T03:50:08.409Z,101725.29
2019-04-26T03:53:01.068Z,101728.33
2019-04-26T03:55:38.261Z,101730.31
2019-04-26T03:58:21.692Z,101731.45
2019-04-26T04:01:03.370Z,101729.94
2019-04-26T04:03:46.184Z,101723.27
2019-04-26T04:06:23.556Z,101721.77
2019-04-26T04:09:04.986Z,101718.34
2019-04-26T04:11:51.197Z,101717.36
2019-04-26T04:14:37.678Z,101718.60
2019-04-26T04:17:16.935Z,101713.85
2019-04-26T04:20:14.411Z,101707.78
2019-04-26T04:23:16.991Z,101703.02
2019-04-26T04:25:51.677Z,101710.41
2019-04-26T04:28:35.336Z,101706.21
2019-04-26T04:31:21.847Z,101705.46
2019-04-26T04:34:21.269Z,101702.58
2019-04-26T04:36:56.488Z,101707.00
2019-04-26T04:39:42.056Z,101707.64
2019-04-26T04:42:26.724Z,101709.61
2019-04-26T04:45:11.910Z,101711.86
2019-04-26T04:48:22.192Z,101701.63
2019-04-26T04:51:26.190Z,101700.11
2019-04-26T04:54:01.269Z,101701.55
2019-04-26T04:56:47.811Z,101704.09
2019-04-26T04:59:34.798Z,101704.97
2019-04-26T05:02:51.041Z,101699.05
2019-04-26T05:05:39.710Z,101695.86
2019-04-26T05:08:34.407Z,101699.41
2019-04-26T05:11:06.995Z,101702.69
2019-04-26T05:13:45.219Z,101697.84
2019-04-26T05:16:41.428Z,101700.55
2019-04-26T05:19:48.905Z,101697.55
2019-04-26T05:22:55.493Z,101696.47
2019-04-26T05:26:05.117Z,101691.28
2019-04-26T05:28:50.094Z,101687.72
2019-04-26T05:31:36.791Z,101694.16
2019-04-26T05:34:24.856Z,101690.57
2019-04-26T05:36:59.901Z,101689.12
2019-04-26T05:39:49.212Z,101689.25
2019-04-26T05:43:03.726Z,101684.52
2019-04-26T05:46:10.414Z,101682.78
2019-04-26T05:49:02.174Z,101683.44
2019-04-26T05:51:59.287Z,101678.66
2019-04-26T05:54:59.597Z,101680.08
2019-04-26T05:57:58.717Z,101673.34
2019-04-26T06:00:59.753Z,101670.66
2019-04-26T06:03:44.841Z,101669.07
2019-04-26T06:06:36.466Z,101665.52
2019-04-26T06:09:31.325Z,101668.48
2019-04-26T06:12:07.814Z,101661.05
2019-04-26T06:14:59.036Z,101656.17
2019-04-26T06:17:47.299Z,101666.75
2019-04-26T06:20:23.610Z,101666.61
2019-04-26T06:22:59.704Z,101663.84
2019-04-26T06:25:55.683Z,101656.72
2019-04-26T06:28:44.912Z,101657.98
2019-04-26T06:31:22.388Z,101659.72
2019-04-26T06:34:03.378Z,101656.17
2019-04-26T06:36:39.746Z,101654.57
2019-04-26T06:39:21.234Z,101655.99
2019-04-26T06:42:23.012Z,101655.62
2019-04-26T06:45:18.842Z,101648.25
2019-04-26T06:48:32.462Z,101653.77
2019-04-26T06:51:24.130Z,101655.34
2019-04-26T06:53:58.923Z,101650.45
2019-04-26T06:56:47.256Z,101653.48
2019-04-26T06:59:22.019Z,101649.70
2019-04-26T07:01:59.492Z,101651.31
2019-04-26T07:05:04.769Z,101644.23
2019-04-26T07:07:49.303Z,101647.94
2019-04-26T07:10:46.301Z,101647.16
2019-04-26T07:13:45.229Z,101645.27
2019-04-26T07:16:29.580Z,101641.50
2019-04-26T07:19:11.197Z,101646.25
2019-04-26T07:22:34.759Z,101645.77
2019-04-26T07:25:03.565Z,101642.06
2019-04-26T07:27:39.840Z,101634.13
2019-04-26T07:30:21.883Z,101635.07
2019-04-26T07:32:59.859Z,101631.79
2019-04-26T07:38:16.459Z,101631.46
2019-04-26T07:41:22.821Z,101637.13
2019-04-26T07:44:11.843Z,101633.48
2019-04-26T07:47:08.511Z,101633.97
2019-04-26T07:49:59.933Z,101627.82
2019-04-26T07:52:34.768Z,101637.25
2019-04-26T07:55:34.171Z,101633.77
2019-04-26T07:58:27.484Z,101629.05
2019-04-26T08:01:16.010Z,101628.38
2019-04-26T08:04:05.307Z,101625.98
2019-04-26T08:06:40.219Z,101622.88
2019-04-26T08:09:26.208Z,101621.03
2019-04-26T08:11:53.059Z,101628.61
2019-04-26T08:14:50.778Z,101623.79
2019-04-26T08:17:36.509Z,101620.22
2019-04-26T08:20:18.908Z,101622.53
2019-04-26T08:22:53.723Z,101613.44
2019-04-26T08:25:28.561Z,101613.21
2019-04-26T08:28:03.557Z,101608.38
2019-04-26T08:30:40.557Z,101611.81
2019-04-26T08:33:14.791Z,101604.13
2019-04-26T08:35:53.239Z,101606.65
2019-04-26T08:38:24.987Z,101601.58
2019-04-26T08:41:00.378Z,101594.83
2019-04-26T08:43:43.868Z,101588.92
2019-04-26T08:46:37.276Z,101594.45
2019-04-26T08:49:13.222Z,101581.99
2019-04-26T08:51:46.911Z,101585.66
2019-04-26T08:54:21.939Z,101577.45
2019-04-26T08:56:56.872Z,101580.56
2019-04-26T08:59:46.430Z,101573.55
2019-04-26T09:02:34.696Z,101570.51
2019-04-26T09:05:13.925Z,101565.80
2019-04-26T09:07:49.043Z,101569.34
2019-04-26T09:10:23.692Z,101566.18
2019-04-26T09:12:57.968Z,101566.05
2019-04-26T09:15:40.621Z,101563.53
2019-04-26T09:18:12.791Z,101559.57
2019-04-26T09:20:44.845Z,101550.47
2019-04-26T09:23:40.374Z,101554.48
2019-04-26T09:26:12.498Z,101547.33
2019-04-26T09:28:57.647Z,101556.17
2019-04-26T09:31:37.241Z,101549.86
2019-04-26T09:34:11.489Z,101549.14
2019-04-26T09:36:44.050Z,101541.98
2019-04-26T09:39:16.432Z,101541.23
2019-04-26T09:41:48.682Z,101539.30
2019-04-26T09:44:24.838Z,101534.30
2019-04-26T09:47:07.577Z,101532.42
2019-04-26T09:49:47.250Z,101528.34
2019-04-26T09:52:20.520Z,101530.05
2019-04-26T09:54:52.477Z,101528.09
2019-04-26T09:57:24.651Z,101528.34
2019-04-26T09:59:57.126Z,101525.48
2019-04-26T10:02:33.742Z,101522.86
2019-04-26T10:05:08.060Z,101520.05
2019-04-26T10:07:39.876Z,101520.06
2019-04-26T10:10:22.384Z,101525.97
2019-04-26T10:12:50.258Z,101520.58
2019-04-26T10:15:28.075Z,101515.91
2019-04-26T10:18:00.532Z,101517.80
2019-04-26T10:20:32.600Z,101512.27
2019-04-26T10:23:05.162Z,101514.75
2019-04-26T10:25:36.816Z,101511.69
2019-04-26T10:28:11.843Z,101508.86
2019-04-26T10:30:42.428Z,101513.23
2019-04-26T10:33:15.084Z,101500.41
2019-04-26T10:35:47.395Z,101504.98
2019-04-26T10:38:19.438Z,101502.23
2019-04-26T10:40:52.505Z,101504.68
2019-04-26T10:43:24.273Z,101497.64
2019-04-26T10:45:56.136Z,101496.55
2019-04-26T10:48:28.436Z,101500.75
2019-04-26T10:51:03.391Z,101497.14
2019-04-26T10:53:40.931Z,101491.48
2019-04-26T10:56:23.819Z,101483.70
2019-04-26T10:58:58.272Z,101485.80
2019-04-26T11:01:32.880Z,101483.06
2019-04-26T11:04:05.467Z,101476.61
2019-04-26T11:06:37.437Z,101478.21
2019-04-26T11:09:10.415Z,101469.61
2019-04-26T11:11:42.067Z,101476.84
2019-04-26T11:14:13.839Z,101465.91
2019-04-26T11:16:46.216Z,101467.90
2019-04-26T11:19:17.859Z,101462.98
2019-04-26T11:21:51.024Z,101460.20
2019-04-26T11:24:23.238Z,101458.52
2019-04-26T11:26:55.410Z,101462.30
2019-04-26T11:29:28.756Z,101463.02
2019-04-26T11:32:02.643Z,101457.72
2019-04-26T11:34:34.287Z,101449.47
2019-04-26T11:37:06.951Z,101441.91
2019-04-26T11:39:40.466Z,101443.92
2019-04-26T11:42:13.233Z,101441.05
2019-04-26T11:44:45.518Z,101428.36
2019-04-26T11:47:17.584Z,101426.67
2019-04-26T11:49:50.122Z,101419.33
2019-04-26T11:52:21.953Z,101427.88
2019-04-26T11:54:55.195Z,101427.88
2019-04-26T11:57:27.794Z,101420.80
2019-04-26T12:00:01.328Z,101423.34
2019-04-26T12:02:34.777Z,101422.13
2019-04-26T12:05:11.356Z,101419.58
2019-04-26T12:07:57.359Z,101417.67
2019-04-26T12:10:29.838Z,101412.38
2019-04-26T12:13:05.924Z,101408.39
2019-04-26T12:15:39.143Z,101416.55
2019-04-26T12:18:09.686Z,101408.91
2019-04-26T12:20:42.594Z,101408.64
2019-04-26T12:23:20.804Z,101409.25
2019-04-26T12:25:48.258Z,101405.42
2019-04-26T12:28:20.348Z,101402.78
2019-04-26T12:30:54.177Z,101400.47
2019-04-26T12:33:25.321Z,101392.84
2019-04-26T12:35:57.392Z,101391.02
2019-04-26T12:38:30.100Z,101392.80
2019-04-26T12:41:01.811Z,101392.28
2019-04-26T12:43:33.864Z,101387.08
2019-04-26T12:46:27.103Z,101389.76
2019-04-26T12:48:58.191Z,101382.72
2019-04-26T12:51:29.831Z,101379.14
2019-04-26T12:54:03.712Z,101376.75
2019-04-26T12:56:35.308Z,101373.00
2019-04-26T12:59:07.502Z,101371.17
2019-04-26T13:01:42.710Z,101371.03
2019-04-26T13:04:12.754Z,101367.86
2019-04-26T13:06:52.168Z,101367.94
2019-04-26T13:09:26.634Z,101365.63
2019-04-26T13:12:14.538Z,101358.31
2019-04-26T13:14:54.090Z,101359.30
2019-04-26T13:17:35.739Z,101356.06
2019-04-26T13:20:08.555Z,101357.14
2019-04-26T13:22:46.310Z,101351.14
2019-04-26T13:25:20.114Z,101352.98
2019-04-26T13:27:47.948Z,101355.86
2019-04-26T13:30:32.283Z,101349.60
2019-04-26T13:32:54.645Z,101349.86
2019-04-26T13:35:25.976Z,101348.04
2019-04-26T13:37:57.947Z,101346.81
2019-04-26T13:40:30.574Z,101346.81
2019-04-26T13:43:02.596Z,101345.98
2019-04-26T13:45:55.268Z,101350.14
2019-04-26T13:48:43.713Z,101350.65
2019-04-26T13:51:25.199Z,101345.05
2019-04-26T13:53:57.162Z,101344.20
2019-04-26T13:56:32.011Z,101347.81
2019-04-26T14:12:18.696Z,101321.78
2019-04-26T14:14:48.243Z,101328.70
2019-04-26T14:17:20.311Z,101328.64
2019-04-26T14:19:52.014Z,101326.19
2019-04-26T14:22:25.453Z,101326.53
2019-04-26T14:25:01.828Z,101331.80
2019-04-26T14:27:38.210Z,101324.14
2019-04-26T14:30:10.462Z,101337.52
2019-04-26T14:32:43.268Z,101335.05
2019-04-26T14:35:17.132Z,101330.36
2019-04-26T14:37:49.781Z,101331.41
2019-04-26T14:40:21.963Z,101328.30
2019-04-26T14:43:05.993Z,101329.72
2019-04-26T14:45:27.114Z,101331.11
2019-04-26T14:48:00.213Z,101331.81
2019-04-26T14:50:33.547Z,101329.50
2019-04-26T14:53:05.434Z,101329.84
2019-04-26T14:55:37.193Z,101324.13
2019-04-26T14:58:09.174Z,101326.59
2019-04-26T15:00:43.851Z,101326.52
2019-04-26T15:03:20.807Z,101324.34
2019-04-26T15:05:55.213Z,101320.76
2019-04-26T15:08:27.268Z,101322.90
2019-04-26T15:11:01.284Z,101316.73
2019-04-26T15:13:36.301Z,101315.34
2019-04-26T15:16:10.485Z,101324.92
2019-04-26T15:18:38.753Z,101322.79
2019-04-26T15:21:10.491Z,101318.00
2019-04-26T15:23:42.253Z,101322.53
2019-04-26T15:26:14.305Z,101320.36
2019-04-26T15:28:50.544Z,101318.97
2019-04-26T15:31:21.593Z,101322.77
2019-04-26T15:33:53.066Z,101314.92
2019-04-26T15:36:25.133Z,101324.67
2019-04-26T15:38:57.425Z,101321.84
2019-04-26T15:41:30.616Z,101319.86
2019-04-26T15:44:03.915Z,101312.69
2019-04-26T15:46:53.883Z,101320.08
2019-04-26T15:49:43.896Z,101321.87
2019-04-26T15:52:15.977Z,101319.34
2019-04-26T15:54:47.619Z,101317.52
2019-04-26T15:57:19.901Z,101321.43
2019-04-26T15:59:54.354Z,101314.72
2019-04-26T16:02:26.346Z,101321.22
2019-04-26T16:04:58.349Z,101321.77
2019-04-26T16:07:30.089Z,101326.69
2019-04-26T16:10:02.177Z,101317.21
2019-04-26T16:12:34.146Z,101319.14
2019-04-26T16:15:11.441Z,101317.66
2019-04-26T16:17:41.303Z,101319.23
2019-04-26T16:20:13.633Z,101317.27
2019-04-26T16:22:49.094Z,101313.94
2019-04-26T16:25:20.202Z,101319.91
2019-04-26T16:27:53.422Z,101309.34
2019-04-26T16:30:28.454Z,101314.05
2019-04-26T16:33:13.811Z,101320.00
2019-04-26T16:35:45.602Z,101315.78
2019-04-26T16:38:34.378Z,101318.97
2019-04-26T16:41:07.469Z,101323.53
2019-04-26T16:43:44.613Z,101323.52
2019-04-26T16:46:20.229Z,101315.66
2019-04-26T16:48:46.182Z,101319.48
2019-04-26T16:51:18.147Z,101313.11
2019-04-26T16:54:03.588Z,101314.97
2019-04-26T16:56:26.675Z,101318.09
2019-04-26T16:58:56.825Z,101316.81
2019-04-26T17:01:28.877Z,101315.21
2019-04-26T17:04:00.806Z,101322.30
2019-04-26T17:06:32.809Z,101332.08
2019-04-26T17:09:07.148Z,101337.13
2019-04-26T17:11:41.387Z,101333.34
2019-04-26T17:14:13.281Z,101344.62
2019-04-26T17:16:44.976Z,101345.63
2019-04-26T17:19:19.738Z,101352.19
2019-04-26T17:21:52.460Z,101345.36
2019-04-26T17:24:28.553Z,101351.99
2019-04-26T17:27:05.468Z,101356.99
2019-04-26T17:29:35.786Z,101361.73
2019-04-26T17:32:09.116Z,101371.89
2019-04-26T17:34:43.368Z,101364.02
2019-04-26T17:37:17.405Z,101367.62
2019-04-26T17:39:52.163Z,101369.84
2019-04-26T17:42:25.186Z,101369.59
2019-04-26T17:44:57.650Z,101373.38
2019-04-26T17:47:33.024Z,101381.30
2019-04-26T17:50:06.124Z,101378.32
2019-04-26T17:52:37.628Z,101372.27
2019-04-26T17:55:11.935Z,101383.60
2019-04-26T17:57:48.432Z,101383.60
2019-04-26T18:00:22.305Z,101382.73
2019-04-26T18:02:52.755Z,101386.21
2019-04-26T18:05:41.689Z,101386.11
2019-04-26T18:07:59.703Z,101389.58
2019-04-26T18:10:35.626Z,101395.23
2019-04-26T18:13:05.158Z,101391.53
2019-04-26T18:15:40.011Z,101397.71
2019-04-26T18:18:18.962Z,101396.00
2019-04-26T18:20:55.661Z,101392.09
2019-04-26T18:23:30.323Z,101386.83
2019-04-26T18:26:03.128Z,101387.80
2019-04-26T18:28:34.526Z,101389.27
2019-04-26T18:31:09.150Z,101389.16
2019-04-26T18:33:42.582Z,101391.19
2019-04-26T18:36:14.207Z,101397.81
2019-04-26T18:38:48.689Z,101395.19
2019-04-26T18:41:23.106Z,101395.80
2019-04-26T18:43:54.155Z,101389.33
2019-04-26T18:46:31.850Z,101391.25
2019-04-26T18:49:04.467Z,101389.15
2019-04-26T18:51:36.337Z,101390.54
2019-04-26T18:54:14.560Z,101388.44
2019-04-26T18:56:48.050Z,101393.37
2019-04-26T18:59:19.917Z,101388.48
2019-04-26T19:01:53.474Z,101392.09
2019-04-26T19:04:25.284Z,101388.68
2019-04-26T19:06:57.331Z,101380.59
2019-04-26T19:09:31.083Z,101380.94
2019-04-26T19:12:03.048Z,101379.63
2019-04-26T19:15:03.078Z,101387.05
2019-04-26T19:17:33.843Z,101383.34
2019-04-26T19:20:11.542Z,101385.56
2019-04-26T19:22:46.569Z,101385.66
2019-04-26T19:25:22.989Z,101388.70
2019-04-26T19:27:54.030Z,101383.09
2019-04-26T19:30:25.857Z,101386.95
2019-04-26T19:32:57.658Z,101382.39
2019-04-26T19:35:29.396Z,101389.27
2019-04-26T19:38:03.281Z,101392.31
2019-04-26T19:40:35.289Z,101392.08
2019-04-26T19:43:09.225Z,101392.95
2019-04-26T19:45:48.442Z,101391.11
2019-04-26T19:48:22.763Z,101388.39
2019-04-26T19:50:57.160Z,101393.89
2019-04-26T19:53:32.216Z,101390.92
2019-04-26T19:56:17.355Z,101383.08
2019-04-26T19:58:57.287Z,101384.21
2019-04-26T20:01:24.986Z,101382.08
2019-04-26T20:03:56.861Z,101385.36
2019-04-26T20:06:29.032Z,101383.22
2019-04-26T20:09:01.927Z,101386.50
2019-04-26T20:11:35.321Z,101387.08
2019-04-26T20:14:07.112Z,101384.38
2019-04-26T20:16:59.336Z,101383.86
2019-04-26T20:19:36.579Z,101389.58
2019-04-26T20:22:04.885Z,101384.16
2019-04-26T20:24:36.849Z,101383.92
2019-04-26T20:27:08.513Z,101386.92
2019-04-26T20:29:47.114Z,101382.86
2019-04-26T20:32:21.225Z,101380.98
2019-04-26T20:34:51.898Z,101388.03
2019-04-26T20:37:25.820Z,101390.22
2019-04-26T20:40:16.235Z,101388.33
2019-04-26T20:42:31.608Z,101390.48
2019-04-26T20:45:04.416Z,101386.17
2019-04-26T20:47:36.978Z,101389.14
2019-04-26T20:50:09.328Z,101392.68
2019-04-26T20:52:41.505Z,101387.81
2019-04-26T20:55:13.794Z,101384.78
2019-04-26T20:57:45.631Z,101383.42
2019-04-26T21:00:17.802Z,101393.19
2019-04-26T21:02:54.161Z,101387.20
2019-04-26T21:05:23.856Z,101383.95
2019-04-26T21:07:55.563Z,101391.52
2019-04-26T21:10:27.408Z,101387.17
2019-04-26T21:12:59.072Z,101385.84
2019-04-26T21:15:32.118Z,101393.11
2019-04-26T21:18:04.288Z,101387.44
2019-04-26T21:20:36.665Z,101385.81
2019-04-26T21:23:08.347Z,101388.80
2019-04-26T21:26:02.763Z,101386.89
2019-04-26T21:28:54.284Z,101380.13
2019-04-26T21:31:30.752Z,101381.48
2019-04-26T21:34:07.926Z,101383.39
2019-04-26T21:36:55.288Z,101381.48
2019-04-26T21:39:35.622Z,101379.59
2019-04-26T21:42:10.444Z,101381.74
2019-04-26T21:44:44.689Z,101375.79
2019-04-26T21:47:16.336Z,101376.32
2019-04-26T21:49:53.983Z,101379.28
2019-04-26T21:52:28.003Z,101382.23
2019-04-26T21:54:56.501Z,101377.03
2019-04-26T21:57:28.445Z,101377.03
2019-04-26T22:00:00.138Z,101375.95
2019-04-26T22:02:34.886Z,101378.05
2019-04-26T22:05:07.956Z,101377.50
2019-04-26T22:07:44.694Z,101371.27
2019-04-26T22:10:18.675Z,101368.81
2019-04-26T22:12:50.747Z,101371.48
2019-04-26T22:15:24.141Z,101373.06
2019-04-26T22:17:57.721Z,101370.88
2019-04-26T22:20:30.930Z,101372.47
2019-04-26T22:23:04.641Z,101368.13
2019-04-26T22:25:38.349Z,101372.14
2019-04-26T22:28:10.216Z,101366.70
2019-04-26T22:30:42.181Z,101368.02
2019-04-26T22:33:14.235Z,101367.44
2019-04-26T22:35:46.212Z,101364.95
2019-04-26T22:38:23.764Z,101368.95
2019-04-26T22:40:54.722Z,101362.94
2019-04-26T22:43:41.653Z,101356.13
2019-04-26T22:46:19.182Z,101357.68
2019-04-26T22:48:54.661Z,101348.99
2019-04-26T22:51:28.511Z,101348.71
2019-04-26T22:54:02.601Z,101348.66
2019-04-26T22:56:36.945Z,101354.00
2019-04-26T22:59:07.935Z,101352.59
2019-04-26T23:01:47.092Z,101349.07
2019-04-26T23:04:16.170Z,101351.48
2019-04-26T23:06:48.137Z,101347.12
2019-04-26T23:09:20.966Z,101339.27
2019-04-26T23:12:06.346Z,101339.23
2019-04-26T23:14:58.501Z,101340.55
2019-04-26T23:17:47.958Z,101340.52
2019-04-26T23:20:37.598Z,101324.55
2019-04-26T23:23:08.635Z,101324.55
2019-04-26T23:25:40.343Z,101328.02
2019-04-26T23:28:12.125Z,101328.02
2019-04-26T23:30:44.240Z,101329.84
2019-04-26T23:33:15.925Z,101335.72
2019-04-26T23:35:47.953Z,101334.56
2019-04-26T23:38:19.647Z,101333.41
2019-04-26T23:40:51.820Z,101333.41
2019-04-26T23:43:25.561Z,101334.14
2019-04-26T23:45:57.201Z,101325.99
2019-04-26T23:48:28.845Z,101321.37
2019-04-26T23:51:04.816Z,101328.32
2019-04-26T23:53:35.927Z,101321.52
2019-04-26T23:56:07.311Z,101320.16
2019-04-26T23:58:40.298Z,101311.72
